createdAt,value
2023-01-22T00:01:52.523Z,101090.00
2023-01-22T00:06:54.998Z,101079.38
2023-01-22T00:11:58.100Z,101091.06
2023-01-22T00:17:00.698Z,101087.09
2023-01-22T00:22:03.274Z,101061.78
2023-01-22T00:27:06.302Z,101066.38
2023-01-22T00:32:09.012Z,101082.63
2023-01-22T00:37:11.691Z,101076.59
2023-01-22T00:42:14.211Z,101078.56
2023-01-22T00:47:16.823Z,101074.28
2023-01-22T00:52:19.434Z,101071.19
2023-01-22T00:57:22.158Z,101079.34
2023-01-22T01:02:24.913Z,101072.78
2023-01-22T01:07:28.528Z,101084.94
2023-01-22T01:12:31.349Z,101082.91
2023-01-22T01:17:35.345Z,101085.03
2023-01-22T01:22:38.282Z,101083.59
2023-01-22T01:27:40.851Z,101076.63
2023-01-22T01:32:43.408Z,101087.94
2023-01-22T01:37:46.077Z,101087.69
2023-01-22T01:42:48.701Z,101093.66
2023-01-22T01:48:12.934Z,101092.16
2023-01-22T01:53:16.052Z,101096.56
2023-01-22T01:58:21.817Z,101094.22
2023-01-22T02:03:25.642Z,101096.63
2023-01-22T02:08:28.311Z,101077.78
2023-01-22T02:13:35.676Z,101102.53
2023-01-22T02:18:38.476Z,101086.72
2023-01-22T02:23:41.047Z,101100.50
2023-01-22T02:28:43.593Z,101099.38
2023-01-22T02:33:46.291Z,101100.84
2023-01-22T02:38:50.075Z,101104.66
2023-01-22T02:43:53.080Z,101093.09
2023-01-22T02:48:58.451Z,101105.84
2023-01-22T02:54:01.104Z,101079.19
2023-01-22T02:59:04.827Z,101085.00
2023-01-22T03:04:13.508Z,101111.78
2023-01-22T03:09:17.899Z,101121.00
2023-01-22T03:14:38.958Z,101123.38
2023-01-22T03:20:00.137Z,101103.66
2023-01-22T03:25:02.974Z,101123.88
2023-01-22T03:30:08.107Z,101105.00
2023-01-22T03:35:11.227Z,101114.81
2023-01-22T03:40:31.907Z,101136.97
2023-01-22T03:45:36.123Z,101128.38
2023-01-22T03:50:40.911Z,101133.78
2023-01-22T03:55:43.412Z,101140.91
2023-01-22T04:00:48.341Z,101135.16
2023-01-22T04:05:51.025Z,101140.69
2023-01-22T04:10:53.623Z,101145.69
2023-01-22T04:15:56.673Z,101129.13
2023-01-22T04:21:28.636Z,101149.16
2023-01-22T04:26:33.841Z,101156.50
2023-01-22T04:31:38.453Z,101156.91
2023-01-22T04:36:57.603Z,101154.94
2023-01-22T04:42:03.966Z,101157.69
2023-01-22T04:47:07.808Z,101121.47
2023-01-22T04:52:14.016Z,101163.66
2023-01-22T04:57:16.958Z,101144.53
2023-01-22T05:02:19.681Z,101165.41
2023-01-22T05:07:23.969Z,101167.84
2023-01-22T05:12:26.629Z,101173.81
2023-01-22T05:17:30.218Z,101184.16
2023-01-22T05:22:32.866Z,101184.63
2023-01-22T05:27:35.634Z,101197.44
2023-01-22T05:32:44.323Z,101197.22
2023-01-22T05:37:46.928Z,101199.84
2023-01-22T05:42:49.545Z,101208.75
2023-01-22T05:47:53.624Z,101205.63
2023-01-22T05:53:11.337Z,101224.28
2023-01-22T05:58:14.088Z,101229.25
2023-01-22T06:03:19.818Z,101223.09
2023-01-22T06:08:26.991Z,101235.91
2023-01-22T06:13:30.469Z,101241.38
2023-01-22T06:18:40.252Z,101245.56
2023-01-22T06:23:44.132Z,101256.91
2023-01-22T06:28:47.420Z,101269.63
2023-01-22T06:33:50.266Z,101254.09
2023-01-22T06:38:53.217Z,101278.16
2023-01-22T06:44:09.957Z,101273.66
2023-01-22T06:49:13.778Z,101289.19
2023-01-22T06:54:16.397Z,101303.47
2023-01-22T06:59:19.180Z,101294.00
2023-01-22T07:04:21.792Z,101314.66
2023-01-22T07:09:24.310Z,101310.94
2023-01-22T07:14:36.500Z,101331.47
2023-01-22T07:19:39.630Z,101338.22
2023-01-22T07:24:42.267Z,101346.91
2023-01-22T07:29:44.921Z,101348.47
2023-01-22T07:34:47.489Z,101356.69
2023-01-22T07:39:50.013Z,101371.91
2023-01-22T07:44:52.604Z,101379.94
2023-01-22T07:49:55.149Z,101387.28
2023-01-22T07:54:57.735Z,101369.09
2023-01-22T08:00:00.442Z,101389.81
2023-01-22T08:05:03.130Z,101385.34
2023-01-22T08:10:06.296Z,101401.78
2023-01-22T08:15:10.429Z,101409.41
2023-01-22T08:20:13.168Z,101406.84
2023-01-22T08:25:15.887Z,101408.69
2023-01-22T08:30:21.328Z,101418.28
2023-01-22T08:35:24.611Z,101411.75
2023-01-22T08:40:27.769Z,101416.22
2023-01-22T08:45:30.291Z,101418.56
2023-01-22T08:50:32.951Z,101395.25
2023-01-22T08:55:35.657Z,101434.84
2023-01-22T09:00:38.274Z,101434.03
2023-01-22T09:05:41.028Z,101423.41
2023-01-22T09:10:47.145Z,101444.63
2023-01-22T09:15:49.656Z,101459.34
2023-01-22T09:20:52.243Z,101429.16
2023-01-22T09:25:54.865Z,101457.34
2023-01-22T09:30:57.784Z,101459.09
2023-01-22T09:36:11.515Z,101465.19
2023-01-22T09:41:25.843Z,101470.53
2023-01-22T09:46:41.410Z,101466.34
2023-01-22T09:51:53.210Z,101472.59
2023-01-22T09:57:03.094Z,101460.22
2023-01-22T10:02:29.576Z,101469.41
2023-01-22T10:07:36.643Z,101448.22
2023-01-22T10:12:39.370Z,101461.44
2023-01-22T10:17:43.778Z,101473.66
2023-01-22T10:22:48.897Z,101466.53
2023-01-22T10:27:59.963Z,101466.88
2023-01-22T10:33:05.847Z,101458.69
2023-01-22T10:38:24.536Z,101461.34
2023-01-22T10:43:38.928Z,101458.53
2023-01-22T10:48:41.796Z,101455.72
2023-01-22T10:53:56.780Z,101474.63
2023-01-22T10:59:03.233Z,101467.69
2023-01-22T11:04:24.457Z,101452.72
2023-01-22T11:09:54.971Z,101469.44
2023-01-22T11:15:13.224Z,101446.41
2023-01-22T11:20:32.554Z,101465.22
2023-01-22T11:25:50.612Z,101469.16
2023-01-22T11:30:55.881Z,101460.09
2023-01-22T11:36:14.801Z,101463.44
2023-01-22T11:41:36.281Z,101466.88
2023-01-22T11:47:00.734Z,101471.81
2023-01-22T11:52:09.240Z,101465.47
2023-01-22T11:57:32.900Z,101473.13
2023-01-22T12:03:12.823Z,101470.03
2023-01-22T12:08:34.765Z,101470.69
2023-01-22T12:13:52.226Z,101475.59
2023-01-22T12:19:20.811Z,101470.03
2023-01-22T12:24:41.601Z,101469.53
2023-01-22T12:30:01.809Z,101485.19
2023-01-22T12:35:14.880Z,101478.41
2023-01-22T12:40:54.780Z,101484.47
2023-01-22T12:46:10.222Z,101484.38
2023-01-22T12:51:43.781Z,101493.06
2023-01-22T12:56:47.001Z,101488.63
2023-01-22T13:01:59.866Z,101493.19
2023-01-22T13:07:33.209Z,101497.78
2023-01-22T13:12:49.697Z,101497.50
2023-01-22T13:18:13.154Z,101497.03
2023-01-22T13:23:16.242Z,101501.00
2023-01-22T13:28:19.382Z,101508.63
2023-01-22T13:33:23.376Z,101510.84
2023-01-22T13:38:29.147Z,101513.31
2023-01-22T13:43:34.577Z,101518.13
2023-01-22T13:48:38.473Z,101514.00
2023-01-22T13:53:45.528Z,101521.22
2023-01-22T13:58:49.261Z,101526.75
2023-01-22T14:04:02.105Z,101529.09
2023-01-22T14:09:05.049Z,101528.13
2023-01-22T14:14:18.967Z,101527.41
2023-01-22T14:19:21.643Z,101540.88
2023-01-22T14:24:25.309Z,101537.94
2023-01-22T14:29:28.079Z,101538.75
2023-01-22T14:34:30.895Z,101549.91
2023-01-22T14:39:34.796Z,101524.72
2023-01-22T14:44:37.371Z,101544.38
2023-01-22T14:49:40.073Z,101551.44
2023-01-22T14:54:42.603Z,101536.59
2023-01-22T14:59:45.119Z,101550.84
2023-01-22T15:04:47.708Z,101555.19
2023-01-22T15:09:50.186Z,101530.81
2023-01-22T15:14:52.941Z,101546.56
2023-01-22T15:19:56.814Z,101550.91
2023-01-22T15:24:59.380Z,101556.56
2023-01-22T15:30:04.362Z,101560.75
2023-01-22T15:35:07.199Z,101565.47
2023-01-22T15:40:11.011Z,101564.03
2023-01-22T15:45:13.601Z,101560.97
2023-01-22T15:50:20.302Z,101562.91
2023-01-22T15:55:23.072Z,101563.66
2023-01-22T16:00:27.718Z,101566.44
2023-01-22T16:05:30.285Z,101572.50
2023-01-22T16:10:32.873Z,101581.13
2023-01-22T16:15:35.358Z,101559.94
2023-01-22T16:20:37.882Z,101568.31
2023-01-22T16:25:40.606Z,101570.22
2023-01-22T16:30:43.276Z,101584.59
2023-01-22T16:35:45.924Z,101595.09
2023-01-22T16:40:48.563Z,101593.78
2023-01-22T16:45:51.182Z,101596.94
2023-01-22T16:50:54.903Z,101601.94
2023-01-22T16:55:57.570Z,101599.25
2023-01-22T17:01:00.151Z,101608.66
2023-01-22T17:06:02.871Z,101605.81
2023-01-22T17:11:06.260Z,101602.50
2023-01-22T17:16:10.165Z,101607.81
2023-01-22T17:21:16.332Z,101617.50
2023-01-22T17:26:19.161Z,101608.50
2023-01-22T17:31:22.510Z,101619.97
2023-01-22T17:36:29.495Z,101621.91
2023-01-22T17:41:32.919Z,101619.88
2023-01-22T17:46:35.982Z,101626.81
2023-01-22T17:51:41.350Z,101622.22
2023-01-22T17:56:47.306Z,101624.69
2023-01-22T18:01:50.329Z,101623.38
2023-01-22T18:06:53.834Z,101628.00
2023-01-22T18:11:58.527Z,101627.13
2023-01-22T18:17:01.804Z,101610.19
2023-01-22T18:22:04.614Z,101621.94
2023-01-22T18:27:07.197Z,101627.31
2023-01-22T18:32:09.730Z,101620.28
2023-01-22T18:37:13.206Z,101619.59
2023-01-22T18:42:15.700Z,101621.75
2023-01-22T18:47:18.411Z,101636.03
2023-01-22T18:52:20.958Z,101639.09
2023-01-22T18:57:42.940Z,101647.03
2023-01-22T19:03:05.708Z,101657.88
2023-01-22T19:08:08.206Z,101660.69
2023-01-22T19:13:12.065Z,101655.28
2023-01-22T19:18:14.702Z,101662.66
2023-01-22T19:23:17.237Z,101665.28
2023-01-22T19:28:19.772Z,101669.31
2023-01-22T19:33:28.034Z,101680.41
2023-01-22T19:38:30.546Z,101679.22
2023-01-22T19:43:33.835Z,101672.84
2023-01-22T19:48:37.686Z,101691.50
2023-01-22T19:53:43.687Z,101691.78
2023-01-22T19:58:48.835Z,101680.59
2023-01-22T20:04:15.970Z,101692.84
2023-01-22T20:09:21.641Z,101683.94
2023-01-22T20:14:33.361Z,101689.91
2023-01-22T20:19:38.259Z,101683.16
2023-01-22T20:24:41.689Z,101686.50
2023-01-22T20:29:45.824Z,101692.25
2023-01-22T20:34:49.047Z,101690.22
2023-01-22T20:39:51.710Z,101690.00
2023-01-22T20:44:54.263Z,101702.66
2023-01-22T20:49:56.849Z,101693.31
2023-01-22T20:55:02.668Z,101691.06
2023-01-22T21:00:09.461Z,101692.31
2023-01-22T21:05:12.016Z,101692.19
2023-01-22T21:10:14.799Z,101702.13
2023-01-22T21:15:17.611Z,101712.53
2023-01-22T21:20:20.586Z,101704.59
2023-01-22T21:25:23.436Z,101717.84
2023-01-22T21:30:26.023Z,101720.78
2023-01-22T21:35:28.812Z,101717.63
2023-01-22T21:40:31.309Z,101728.38
2023-01-22T21:45:52.844Z,101729.09
2023-01-22T21:50:55.493Z,101721.06
2023-01-22T21:55:58.018Z,101728.38
2023-01-22T22:01:08.207Z,101689.66
2023-01-22T22:06:13.327Z,101722.16
2023-01-22T22:11:15.931Z,101726.25
2023-01-22T22:16:18.719Z,101712.72
2023-01-22T22:21:21.271Z,101736.47
2023-01-22T22:26:24.150Z,101737.78
2023-01-22T22:31:27.230Z,101742.88
2023-01-22T22:36:31.431Z,101737.13
2023-01-22T22:41:36.209Z,101736.78
2023-01-22T22:46:40.015Z,101737.41
2023-01-22T22:51:43.853Z,101731.38
2023-01-22T22:56:48.287Z,101733.06
2023-01-22T23:01:51.579Z,101733.84
2023-01-22T23:06:54.384Z,101735.91
2023-01-22T23:11:58.519Z,101720.63
2023-01-22T23:17:05.270Z,101730.75
2023-01-22T23:22:07.793Z,101738.88
2023-01-22T23:27:10.400Z,101735.44
2023-01-22T23:32:12.920Z,101751.63
2023-01-22T23:37:15.447Z,101750.66
2023-01-22T23:42:18.444Z,101750.72
2023-01-22T23:47:24.514Z,101749.63
2023-01-22T23:52:27.097Z,101746.56
2023-01-22T23:57:29.643Z,101745.72
